createdAt,value
2023-05-09T00:00:07.080Z,3.69
2023-05-09T00:02:55.080Z,3.65
2023-05-09T00:05:23.414Z,3.63
2023-05-09T00:07:51.473Z,3.60
2023-05-09T00:10:19.653Z,3.54
2023-05-09T00:12:49.537Z,3.48
2023-05-09T00:15:17.477Z,3.45
2023-05-09T00:17:46.166Z,3.45
2023-05-09T00:20:14.806Z,3.45
2023-05-09T00:22:42.874Z,3.41
2023-05-09T00:25:11.055Z,3.36
2023-05-09T00:27:39.214Z,3.31
2023-05-09T00:30:07.977Z,3.27
2023-05-09T00:32:36.219Z,3.25
2023-05-09T00:35:05.237Z,3.23
2023-05-09T00:37:33.247Z,3.19
2023-05-09T00:40:01.254Z,3.17
2023-05-09T00:42:29.230Z,3.14
2023-05-09T00:44:57.298Z,3.12
2023-05-09T00:47:25.461Z,3.09
2023-05-09T00:49:53.518Z,3.07
2023-05-09T00:52:23.521Z,3.06
2023-05-09T00:54:55.589Z,3.07
2023-05-09T00:57:23.639Z,3.08
2023-05-09T00:59:51.747Z,3.04
2023-05-09T01:02:20.075Z,3.03
2023-05-09T01:04:48.226Z,3.01
2023-05-09T01:07:27.652Z,2.98
2023-05-09T01:10:01.902Z,2.95
2023-05-09T01:12:46.179Z,2.93
2023-05-09T01:15:27.534Z,2.91
2023-05-09T01:18:09.085Z,2.89
2023-05-09T01:20:46.082Z,2.87
2023-05-09T01:23:44.612Z,2.87
2023-05-09T01:26:50.049Z,2.88
2023-05-09T01:29:36.827Z,2.85
2023-05-09T01:32:09.734Z,2.83
2023-05-09T01:34:38.687Z,2.85
2023-05-09T01:37:06.704Z,2.83
2023-05-09T01:39:34.947Z,2.81
2023-05-09T01:42:03.671Z,2.83
2023-05-09T01:44:35.265Z,2.83
2023-05-09T01:47:03.199Z,2.83
2023-05-09T01:49:31.237Z,2.81
2023-05-09T01:52:00.169Z,2.80
2023-05-09T01:54:28.111Z,2.81
2023-05-09T01:56:56.074Z,2.79
2023-05-09T01:59:24.084Z,2.78
2023-05-09T02:01:53.059Z,2.77
2023-05-09T02:04:21.058Z,2.77
2023-05-09T02:06:52.472Z,2.75
2023-05-09T02:09:20.570Z,2.72
2023-05-09T02:11:48.521Z,2.72
2023-05-09T02:14:16.519Z,2.69
2023-05-09T02:16:44.564Z,2.69
2023-05-09T02:19:12.563Z,2.66
2023-05-09T02:21:40.636Z,2.62
2023-05-09T02:24:08.630Z,2.57
2023-05-09T02:26:36.672Z,2.54
2023-05-09T02:29:06.486Z,2.49
2023-05-09T02:31:34.590Z,2.43
2023-05-09T02:34:03.447Z,2.37
2023-05-09T02:36:32.779Z,2.31
2023-05-09T02:39:01.546Z,2.25
2023-05-09T02:41:30.946Z,2.20
2023-05-09T02:43:58.910Z,2.15
2023-05-09T02:46:27.160Z,2.12
2023-05-09T02:48:55.502Z,2.10
2023-05-09T02:51:23.620Z,2.08
2023-05-09T02:53:51.730Z,2.07
2023-05-09T02:56:19.721Z,2.08
2023-05-09T02:58:51.480Z,2.09
2023-05-09T03:01:19.762Z,2.12
2023-05-09T03:03:47.936Z,2.13
2023-05-09T03:06:16.673Z,2.12
2023-05-09T03:08:44.681Z,2.10
2023-05-09T03:11:13.728Z,2.09
2023-05-09T03:13:42.602Z,2.10
2023-05-09T03:16:13.523Z,2.12
2023-05-09T03:18:42.230Z,2.13
2023-05-09T03:21:10.307Z,2.14
2023-05-09T03:23:39.258Z,2.15
2023-05-09T03:26:07.177Z,2.18
2023-05-09T03:28:35.152Z,2.20
2023-05-09T03:31:05.669Z,2.23
2023-05-09T03:33:33.873Z,2.28
2023-05-09T03:36:02.237Z,2.34
2023-05-09T03:38:30.307Z,2.40
2023-05-09T03:40:58.358Z,2.45
2023-05-09T03:43:26.645Z,2.52
2023-05-09T03:45:54.703Z,2.59
2023-05-09T03:48:23.263Z,2.65
2023-05-09T03:50:52.042Z,2.70
2023-05-09T03:53:20.652Z,2.78
2023-05-09T03:55:49.008Z,2.87
2023-05-09T03:58:19.384Z,3.00
2023-05-09T04:00:47.823Z,3.13
2023-05-09T04:03:17.748Z,3.22
2023-05-09T04:05:47.710Z,3.30
2023-05-09T04:08:24.112Z,3.41
2023-05-09T04:10:52.901Z,3.53
2023-05-09T04:13:21.321Z,3.66
2023-05-09T04:15:49.881Z,3.78
2023-05-09T04:18:17.950Z,3.91
2023-05-09T04:20:46.499Z,4.04
2023-05-09T04:23:15.020Z,4.20
2023-05-09T04:25:43.877Z,4.39
2023-05-09T04:28:11.879Z,4.55
2023-05-09T04:30:40.152Z,4.70
2023-05-09T04:33:08.267Z,4.87
2023-05-09T04:35:36.500Z,5.05
2023-05-09T04:38:05.048Z,5.23
2023-05-09T04:40:33.403Z,5.38
2023-05-09T04:43:01.633Z,5.54
2023-05-09T04:45:32.048Z,5.71
2023-05-09T04:48:00.854Z,5.89
2023-05-09T04:50:30.390Z,6.10
2023-05-09T04:52:58.391Z,6.29
2023-05-09T04:55:26.434Z,6.48
2023-05-09T04:57:56.352Z,7.09
2023-05-09T05:00:24.960Z,8.54
2023-05-09T05:02:53.101Z,9.85
2023-05-09T05:05:25.113Z,11.39
2023-05-09T05:07:54.588Z,12.76
2023-05-09T05:10:24.920Z,13.21
2023-05-09T05:12:56.598Z,14.05
2023-05-09T05:15:24.742Z,15.08
2023-05-09T05:17:53.114Z,15.75
2023-05-09T05:20:22.825Z,15.95
2023-05-09T05:22:51.164Z,16.23
2023-05-09T05:25:19.215Z,16.73
2023-05-09T05:27:47.596Z,16.51
2023-05-09T05:30:15.990Z,16.75
2023-05-09T05:32:44.503Z,17.04
2023-05-09T05:35:13.329Z,16.76
2023-05-09T05:37:42.050Z,17.16
2023-05-09T05:40:10.416Z,17.95
2023-05-09T05:42:40.273Z,18.46
2023-05-09T05:45:09.015Z,18.79
2023-05-09T05:47:39.509Z,19.07
2023-05-09T05:50:11.633Z,19.61
2023-05-09T05:52:39.974Z,20.05
2023-05-09T05:55:09.395Z,19.97
2023-05-09T05:57:39.262Z,19.92
2023-05-09T06:00:12.441Z,20.23
2023-05-09T06:02:48.218Z,20.02
2023-05-09T06:05:22.740Z,20.24
2023-05-09T06:07:51.510Z,19.88
2023-05-09T06:10:19.764Z,20.12
2023-05-09T06:12:47.730Z,20.14
2023-05-09T06:15:16.252Z,20.20
